Tenakee Springs, AK (99841)

11:35 AM AKDT on July 29, 2014 (GMT -0800)
RAWS HOONAH AK US (MHONA2) Elev 450 ft | 57.80 °N, 135.13 °W | Change Station

Current weather conditions updated 40 minutes ago

Mostly Cloudy
Mostly Cloudy
56 °F
Feels Like 56 °F
N
0
Wind Variable Wind from North
Gusts 4.0 mph

Today is forecast to be nearly the same temperature as yesterday. Cloudy with rain.

Today
High -- | Low -- °F
--% Chance of Precip.
Yesterday
High -- | Low -- °F
Precip. -- in
4:49 AM 9:23 PM
Waxing Crescent, 7% visible
Pressure 29.99 in
Visibility 10.0 miles
Clouds Few 1200 ft
Mostly Cloudy 9500 ft
Dew Point 55 °F
Humidity 95%
Rainfall 0.54 in
Snow Depth Not available.
UV 3 out of 12
Pollen Not available.
Air Quality Not available.
Flu Activity Not available.
METAR PAOH 291856Z AUTO 08004KT 10SM FEW012 BKN095 14/13 A2998 RMK AO2 TSNO T01440127 BKN V SCT SLP154 $

More Conditions Fewer Conditions

Pressure 29.99 in
Visibility 10.0 miles
Clouds Few 1200 ft
Mostly Cloudy 9500 ft
Dew Point 55 °F
Humidity 95%
Rainfall 0.54 in
Snow Depth Not available.
UV 3 out of 12
Pollen Not available.
Air Quality Not available.
Flu Activity Not available.
METAR PAOH 291856Z AUTO 08004KT 10SM FEW012 BKN095 14/13 A2998 RMK AO2 TSNO T01440127 BKN V SCT SLP154 $

More Conditions Fewer Conditions

10-Day Weather Forecast

Almanac

Astronomy

Jul. 29, 2014 Rise Set
Actual Time 4:49 AM AKDT 9:23 PM AKDT
Civil Twilight 3:54 AM AKDT 10:17 PM AKDT
Nautical Twilight 2:20 AM AKDT 11:48 PM AKDT
Astronomical Twilight Sun does not rise Sun does not rise
Moon 8:21 AM AKDT 9:45 PM AKDT
Length of Visible Light 18h 22m
Length of Day
16h 34m
Tomorrow will be 4m 9s shorter.
Waxing Crescent, 7% of the Moon is Illuminated
Today
Waxing Crescent
Aug 3
First Quarter
Aug 10
Full
Aug 17
Last Quarter
Aug 25
New

Today's Extremes

State Highs State Lows

Community

WunderPhotos

Upload Photos

1,738,834 photos uploaded!

WunderBlogs® & News

Nearby

Snow Depth

Station Depth Elevation
Long Lake 0 in 820 ft
Upper Tsaina River 0 in 1750 ft
Grandview 0 in 1100 ft
Grouse Creek Divide 0 in 700 ft
Turnagain Pass 0 in 1880 ft

Earthquake Activity

City Distance Mag. Time & Date
No recent earthquake activity has been reported nearby.
Minimum magnitude displayed is 2.5.

Coastal Water Temperatures

Place Temperature
No Stations Reporting

Nearby Weather Stations

Station Location Temp. Dew Point Humidity Wind Precip. Elev Updated Type
RAWS HOONAH AK, Tenakee Springs, AK 56 °F 55 °F 95% North  at  0 mph 0.00 in / hr 450 ft 10:55 AM AKDT MADIS

Show More Stations Show Fewer Stations